sensor_id;sensor_type;location;lat;lon;timestamp;pressure;altitude;pressure_sealevel;temperature;humidity
4012;BME280;2020;48.682;9.024;2022-07-23T00:02:20;96491.22;;;22.08;55.58
4012;BME280;2020;48.682;9.024;2022-07-23T00:04:45;96471.06;;;21.95;55.85
4012;BME280;2020;48.682;9.024;2022-07-23T00:07:11;96470.94;;;21.89;55.60
4012;BME280;2020;48.682;9.024;2022-07-23T00:09:36;96474.75;;;21.94;56.14
4012;BME280;2020;48.682;9.024;2022-07-23T00:12:01;96477.28;;;21.88;55.95
4012;BME280;2020;48.682;9.024;2022-07-23T00:14:27;96469.75;;;21.85;56.11
4012;BME280;2020;48.682;9.024;2022-07-23T00:16:52;96472.31;;;21.92;55.66
4012;BME280;2020;48.682;9.024;2022-07-23T00:19:17;96476.38;;;21.95;55.62
4012;BME280;2020;48.682;9.024;2022-07-23T00:21:42;96475.72;;;21.69;56.88
4012;BME280;2020;48.682;9.024;2022-07-23T00:24:08;96479.78;;;21.83;56.83
4012;BME280;2020;48.682;9.024;2022-07-23T00:26:33;96473.06;;;21.69;58.10
4012;BME280;2020;48.682;9.024;2022-07-23T00:28:58;96476.94;;;21.36;59.86
4012;BME280;2020;48.682;9.024;2022-07-23T00:31:24;96478.53;;;21.25;60.61
4012;BME280;2020;48.682;9.024;2022-07-23T00:33:49;96468.88;;;21.30;61.52
4012;BME280;2020;48.682;9.024;2022-07-23T00:36:14;96470.34;;;21.26;62.69
4012;BME280;2020;48.682;9.024;2022-07-23T00:38:39;96447.69;;;21.30;63.32
4012;BME280;2020;48.682;9.024;2022-07-23T00:41:05;96422.19;;;21.36;62.31
4012;BME280;2020;48.682;9.024;2022-07-23T00:43:30;96408.25;;;21.41;63.04
4012;BME280;2020;48.682;9.024;2022-07-23T00:45:55;96441.38;;;21.62;63.23
4012;BME280;2020;48.682;9.024;2022-07-23T00:48:21;96442.09;;;21.39;61.95
4012;BME280;2020;48.682;9.024;2022-07-23T00:50:46;96435.44;;;21.48;63.88
4012;BME280;2020;48.682;9.024;2022-07-23T00:53:12;96448.09;;;21.46;62.63
4012;BME280;2020;48.682;9.024;2022-07-23T00:55:38;96451.78;;;21.45;61.14
4012;BME280;2020;48.682;9.024;2022-07-23T00:58:04;96433.56;;;21.37;62.46
4012;BME280;2020;48.682;9.024;2022-07-23T01:00:30;96421.72;;;21.39;60.04
4012;BME280;2020;48.682;9.024;2022-07-23T01:02:55;96442.91;;;21.39;61.36
4012;BME280;2020;48.682;9.024;2022-07-23T01:05:21;96428.28;;;21.37;60.07
4012;BME280;2020;48.682;9.024;2022-07-23T01:07:48;96417.59;;;21.43;60.24
4012;BME280;2020;48.682;9.024;2022-07-23T01:10:14;96415.16;;;21.42;60.53
4012;BME280;2020;48.682;9.024;2022-07-23T01:13:05;96420.59;;;21.47;58.77
4012;BME280;2020;48.682;9.024;2022-07-23T01:15:32;96424.28;;;21.46;59.71
4012;BME280;2020;48.682;9.024;2022-07-23T01:17:58;96414.72;;;21.45;59.94
4012;BME280;2020;48.682;9.024;2022-07-23T01:20:24;96424.97;;;21.41;59.90
4012;BME280;2020;48.682;9.024;2022-07-23T01:22:49;96403.09;;;21.46;59.61
4012;BME280;2020;48.682;9.024;2022-07-23T01:25:15;96398.50;;;21.41;58.92
4012;BME280;2020;48.682;9.024;2022-07-23T01:27:40;96377.19;;;21.48;60.12
4012;BME280;2020;48.682;9.024;2022-07-23T01:30:06;96360.63;;;21.41;59.74
4012;BME280;2020;48.682;9.024;2022-07-23T01:32:32;96332.03;;;21.19;60.82
4012;BME280;2020;48.682;9.024;2022-07-23T01:34:57;96381.09;;;21.33;62.37
4012;BME280;2020;48.682;9.024;2022-07-23T01:37:22;96382.00;;;21.27;62.81
4012;BME280;2020;48.682;9.024;2022-07-23T01:39:48;96395.34;;;21.32;63.87
4012;BME280;2020;48.682;9.024;2022-07-23T01:42:13;96375.22;;;21.31;63.70
4012;BME280;2020;48.682;9.024;2022-07-23T01:44:38;96388.00;;;21.35;62.89
4012;BME280;2020;48.682;9.024;2022-07-23T01:47:04;96391.66;;;21.33;62.23
4012;BME280;2020;48.682;9.024;2022-07-23T01:49:29;96396.00;;;21.16;62.96
4012;BME280;2020;48.682;9.024;2022-07-23T01:51:54;96390.63;;;21.23;64.00
4012;BME280;2020;48.682;9.024;2022-07-23T01:54:30;96390.16;;;21.26;63.91
4012;BME280;2020;48.682;9.024;2022-07-23T01:56:56;96384.28;;;21.24;63.12
4012;BME280;2020;48.682;9.024;2022-07-23T01:59:22;96387.47;;;21.14;61.47
4012;BME280;2020;48.682;9.024;2022-07-23T02:01:48;96395.72;;;21.06;63.71
4012;BME280;2020;48.682;9.024;2022-07-23T02:04:16;96402.72;;;20.81;64.09
4012;BME280;2020;48.682;9.024;2022-07-23T02:06:41;96418.06;;;20.72;63.75
4012;BME280;2020;48.682;9.024;2022-07-23T02:09:07;96412.94;;;20.59;64.06
4012;BME280;2020;48.682;9.024;2022-07-23T02:11:32;96416.97;;;20.62;64.45
4012;BME280;2020;48.682;9.024;2022-07-23T02:13:57;96423.28;;;20.60;64.35
4012;BME280;2020;48.682;9.024;2022-07-23T02:16:23;96426.59;;;20.74;64.49
4012;BME280;2020;48.682;9.024;2022-07-23T02:18:48;96433.50;;;20.75;63.51
4012;BME280;2020;48.682;9.024;2022-07-23T02:21:13;96438.38;;;20.79;63.65
4012;BME280;2020;48.682;9.024;2022-07-23T02:23:38;96447.91;;;20.61;64.21
4012;BME280;2020;48.682;9.024;2022-07-23T02:26:04;96454.31;;;20.46;64.84
4012;BME280;2020;48.682;9.024;2022-07-23T02:28:29;96457.41;;;20.43;64.54
4012;BME280;2020;48.682;9.024;2022-07-23T02:30:54;96463.13;;;20.40;64.67
4012;BME280;2020;48.682;9.024;2022-07-23T02:33:19;96469.75;;;20.50;65.03
4012;BME280;2020;48.682;9.024;2022-07-23T02:35:45;96476.06;;;20.49;64.53
4012;BME280;2020;48.682;9.024;2022-07-23T02:38:10;96483.28;;;20.60;64.06
4012;BME280;2020;48.682;9.024;2022-07-23T02:40:36;96477.13;;;20.66;63.65
4012;BME280;2020;48.682;9.024;2022-07-23T02:43:01;96483.28;;;20.60;63.20
4012;BME280;2020;48.682;9.024;2022-07-23T02:45:27;96478.31;;;20.70;62.45
4012;BME280;2020;48.682;9.024;2022-07-23T02:47:52;96481.31;;;20.74;62.65
4012;BME280;2020;48.682;9.024;2022-07-23T02:50:18;96481.31;;;20.74;62.02
4012;BME280;2020;48.682;9.024;2022-07-23T02:52:43;96486.91;;;20.84;62.33
4012;BME280;2020;48.682;9.024;2022-07-23T02:55:08;96490.38;;;20.85;62.08
4012;BME280;2020;48.682;9.024;2022-07-23T02:57:34;96495.28;;;20.81;62.43
4012;BME280;2020;48.682;9.024;2022-07-23T02:59:59;96498.59;;;20.77;63.05
4012;BME280;2020;48.682;9.024;2022-07-23T03:02:24;96499.19;;;20.79;63.20
4012;BME280;2020;48.682;9.024;2022-07-23T03:04:49;96495.34;;;20.74;63.70
4012;BME280;2020;48.682;9.024;2022-07-23T03:07:16;96499.03;;;20.73;63.61
4012;BME280;2020;48.682;9.024;2022-07-23T03:09:41;96507.41;;;20.70;63.91
4012;BME280;2020;48.682;9.024;2022-07-23T03:12:07;96499.75;;;20.62;64.25
4012;BME280;2020;48.682;9.024;2022-07-23T03:14:32;96506.06;;;20.61;64.26
4012;BME280;2020;48.682;9.024;2022-07-23T03:16:57;96506.06;;;20.61;64.82
4012;BME280;2020;48.682;9.024;2022-07-23T03:19:24;96493.88;;;20.60;64.37
4012;BME280;2020;48.682;9.024;2022-07-23T03:21:50;96499.31;;;20.65;64.81
4012;BME280;2020;48.682;9.024;2022-07-23T03:24:15;96498.44;;;20.71;64.12
4012;BME280;2020;48.682;9.024;2022-07-23T03:26:42;96486.81;;;20.72;64.85
4012;BME280;2020;48.682;9.024;2022-07-23T03:29:08;96490.06;;;20.74;64.50
4012;BME280;2020;48.682;9.024;2022-07-23T03:31:33;96493.28;;;20.77;65.30
4012;BME280;2020;48.682;9.024;2022-07-23T03:33:58;96487.59;;;20.80;64.94
4012;BME280;2020;48.682;9.024;2022-07-23T03:36:24;96486.38;;;20.75;65.57
4012;BME280;2020;48.682;9.024;2022-07-23T03:38:49;96489.69;;;20.71;65.35
4012;BME280;2020;48.682;9.024;2022-07-23T03:41:15;96493.34;;;20.70;65.21
4012;BME280;2020;48.682;9.024;2022-07-23T03:43:41;96487.25;;;20.69;65.48
4012;BME280;2020;48.682;9.024;2022-07-23T03:46:06;96487.81;;;20.53;65.20
4012;BME280;2020;48.682;9.024;2022-07-23T03:48:31;96486.63;;;20.49;65.72
4012;BME280;2020;48.682;9.024;2022-07-23T03:50:56;96489.72;;;20.45;65.79
4012;BME280;2020;48.682;9.024;2022-07-23T03:53:22;96491.13;;;20.48;66.37
4012;BME280;2020;48.682;9.024;2022-07-23T03:55:47;96490.75;;;20.44;65.62
4012;BME280;2020;48.682;9.024;2022-07-23T03:58:12;96497.75;;;20.32;65.61
4012;BME280;2020;48.682;9.024;2022-07-23T04:00:38;96512.00;;;20.31;66.38
4012;BME280;2020;48.682;9.024;2022-07-23T04:03:03;96516.09;;;20.27;66.58
4012;BME280;2020;48.682;9.024;2022-07-23T04:05:28;96507.22;;;20.21;66.82
4012;BME280;2020;48.682;9.024;2022-07-23T04:07:53;96511.75;;;20.14;67.00
4012;BME280;2020;48.682;9.024;2022-07-23T04:10:19;96510.00;;;20.01;67.24
4012;BME280;2020;48.682;9.024;2022-07-23T04:12:44;96505.41;;;19.90;67.89
4012;BME280;2020;48.682;9.024;2022-07-23T04:15:09;96510.81;;;20.01;67.50
4012;BME280;2020;48.682;9.024;2022-07-23T04:17:35;96524.81;;;20.02;67.53
4012;BME280;2020;48.682;9.024;2022-07-23T04:20:00;96520.84;;;19.93;67.58
4012;BME280;2020;48.682;9.024;2022-07-23T04:22:26;96515.44;;;20.06;66.88
4012;BME280;2020;48.682;9.024;2022-07-23T04:24:51;96521.59;;;20.00;65.98
4012;BME280;2020;48.682;9.024;2022-07-23T04:27:16;96519.50;;;20.09;65.57
4012;BME280;2020;48.682;9.024;2022-07-23T04:29:42;96522.69;;;20.17;65.53
4012;BME280;2020;48.682;9.024;2022-07-23T04:32:07;96525.91;;;20.20;66.49
4012;BME280;2020;48.682;9.024;2022-07-23T04:34:32;96519.88;;;20.12;65.59
4012;BME280;2020;48.682;9.024;2022-07-23T04:36:58;96521.66;;;20.19;66.18
4012;BME280;2020;48.682;9.024;2022-07-23T04:39:23;96513.88;;;20.24;65.52
4012;BME280;2020;48.682;9.024;2022-07-23T04:41:48;96511.69;;;20.21;66.21
4012;BME280;2020;48.682;9.024;2022-07-23T04:44:14;96511.31;;;20.17;66.27
4012;BME280;2020;48.682;9.024;2022-07-23T04:46:39;96520.78;;;20.25;65.76
4012;BME280;2020;48.682;9.024;2022-07-23T04:49:04;96510.06;;;20.20;65.83
4012;BME280;2020;48.682;9.024;2022-07-23T04:51:30;96506.28;;;20.34;66.79
4012;BME280;2020;48.682;9.024;2022-07-23T04:53:55;96516.88;;;20.53;66.07
4012;BME280;2020;48.682;9.024;2022-07-23T04:56:21;96524.41;;;20.56;64.90
4012;BME280;2020;48.682;9.024;2022-07-23T04:58:46;96525.69;;;20.46;65.17
4012;BME280;2020;48.682;9.024;2022-07-23T05:01:12;96515.81;;;20.35;65.29
4012;BME280;2020;48.682;9.024;2022-07-23T05:03:37;96505.84;;;20.37;65.46
4012;BME280;2020;48.682;9.024;2022-07-23T05:06:02;96501.00;;;20.34;65.18
4012;BME280;2020;48.682;9.024;2022-07-23T05:08:28;96506.03;;;20.17;65.33
4012;BME280;2020;48.682;9.024;2022-07-23T05:10:53;96507.59;;;20.25;65.22
4012;BME280;2020;48.682;9.024;2022-07-23T05:13:18;96504.66;;;20.33;64.59
4012;BME280;2020;48.682;9.024;2022-07-23T05:15:44;96510.66;;;20.47;64.65
4012;BME280;2020;48.682;9.024;2022-07-23T05:18:10;96500.56;;;20.37;63.82
4012;BME280;2020;48.682;9.024;2022-07-23T05:20:35;96512.31;;;20.41;63.15
4012;BME280;2020;48.682;9.024;2022-07-23T05:23:00;96524.06;;;20.45;63.39
4012;BME280;2020;48.682;9.024;2022-07-23T05:25:26;96527.56;;;20.65;63.13
4012;BME280;2020;48.682;9.024;2022-07-23T05:27:51;96525.59;;;20.60;62.41
4012;BME280;2020;48.682;9.024;2022-07-23T05:30:17;96526.66;;;20.78;62.46
4012;BME280;2020;48.682;9.024;2022-07-23T05:32:42;96526.16;;;20.87;62.11
4012;BME280;2020;48.682;9.024;2022-07-23T05:35:07;96511.47;;;20.92;62.19
4012;BME280;2020;48.682;9.024;2022-07-23T05:37:33;96519.38;;;21.10;61.71
4012;BME280;2020;48.682;9.024;2022-07-23T05:40:07;96528.44;;;21.02;61.83
4012;BME280;2020;48.682;9.024;2022-07-23T05:42:36;96526.69;;;20.96;62.25
4012;BME280;2020;48.682;9.024;2022-07-23T05:45:03;96535.78;;;21.00;61.97
4012;BME280;2020;48.682;9.024;2022-07-23T05:47:28;96537.56;;;20.88;61.76
4012;BME280;2020;48.682;9.024;2022-07-23T05:49:54;96526.53;;;20.91;61.64
4012;BME280;2020;48.682;9.024;2022-07-23T05:52:19;96534.31;;;20.86;62.11
4012;BME280;2020;48.682;9.024;2022-07-23T05:54:44;96539.03;;;21.02;61.64
4012;BME280;2020;48.682;9.024;2022-07-23T05:57:10;96544.31;;;21.02;61.89
4012;BME280;2020;48.682;9.024;2022-07-23T05:59:35;96539.75;;;21.10;61.85
4012;BME280;2020;48.682;9.024;2022-07-23T06:02:00;96533.59;;;21.16;62.12
4012;BME280;2020;48.682;9.024;2022-07-23T06:04:25;96530.69;;;21.17;61.84
4012;BME280;2020;48.682;9.024;2022-07-23T06:06:51;96522.84;;;21.29;61.26
4012;BME280;2020;48.682;9.024;2022-07-23T06:09:16;96517.19;;;21.56;62.26
4012;BME280;2020;48.682;9.024;2022-07-23T06:11:42;96512.38;;;21.84;61.41
4012;BME280;2020;48.682;9.024;2022-07-23T06:14:07;96508.16;;;21.95;60.51
4012;BME280;2020;48.682;9.024;2022-07-23T06:16:32;96505.19;;;22.03;60.86
4012;BME280;2020;48.682;9.024;2022-07-23T06:18:57;96508.78;;;22.20;60.56
4012;BME280;2020;48.682;9.024;2022-07-23T06:21:23;96511.66;;;22.31;59.22
4012;BME280;2020;48.682;9.024;2022-07-23T06:23:48;96519.41;;;22.44;58.99
4012;BME280;2020;48.682;9.024;2022-07-23T06:26:13;96530.56;;;22.23;59.81
4012;BME280;2020;48.682;9.024;2022-07-23T06:28:39;96530.88;;;22.14;60.48
4012;BME280;2020;48.682;9.024;2022-07-23T06:31:04;96532.28;;;21.86;60.91
4012;BME280;2020;48.682;9.024;2022-07-23T06:33:29;96530.69;;;21.85;61.50
4012;BME280;2020;48.682;9.024;2022-07-23T06:35:54;96544.09;;;21.90;61.27
4012;BME280;2020;48.682;9.024;2022-07-23T06:38:20;96543.69;;;22.17;61.28
4012;BME280;2020;48.682;9.024;2022-07-23T06:40:45;96554.31;;;22.41;61.29
4012;BME280;2020;48.682;9.024;2022-07-23T06:43:10;96552.06;;;22.57;61.40
4012;BME280;2020;48.682;9.024;2022-07-23T06:45:36;96561.88;;;22.56;59.80
4012;BME280;2020;48.682;9.024;2022-07-23T06:48:01;96566.13;;;22.45;60.38
4012;BME280;2020;48.682;9.024;2022-07-23T06:50:28;96560.41;;;22.42;60.49
4012;BME280;2020;48.682;9.024;2022-07-23T06:52:53;96555.25;;;22.35;59.77
4012;BME280;2020;48.682;9.024;2022-07-23T06:55:18;96566.75;;;22.29;59.30
4012;BME280;2020;48.682;9.024;2022-07-23T06:57:44;96574.25;;;22.44;59.58
4012;BME280;2020;48.682;9.024;2022-07-23T07:00:10;96577.19;;;22.66;59.26
4012;BME280;2020;48.682;9.024;2022-07-23T07:02:36;96589.53;;;22.60;59.06
4012;BME280;2020;48.682;9.024;2022-07-23T07:05:02;96586.59;;;22.38;59.09
4012;BME280;2020;48.682;9.024;2022-07-23T07:07:27;96582.28;;;22.25;58.71
4012;BME280;2020;48.682;9.024;2022-07-23T07:09:53;96574.59;;;22.24;58.62
4012;BME280;2020;48.682;9.024;2022-07-23T07:12:18;96569.94;;;22.19;59.15
4012;BME280;2020;48.682;9.024;2022-07-23T07:14:43;96564.56;;;22.26;58.54
4012;BME280;2020;48.682;9.024;2022-07-23T07:17:08;96565.28;;;22.45;58.84
4012;BME280;2020;48.682;9.024;2022-07-23T07:19:35;96572.94;;;22.77;57.20
4012;BME280;2020;48.682;9.024;2022-07-23T07:22:01;96571.63;;;23.03;56.00
4012;BME280;2020;48.682;9.024;2022-07-23T07:24:26;96577.44;;;23.24;54.67
4012;BME280;2020;48.682;9.024;2022-07-23T07:26:51;96562.66;;;23.28;55.09
4012;BME280;2020;48.682;9.024;2022-07-23T07:29:16;96554.78;;;23.33;54.56
4012;BME280;2020;48.682;9.024;2022-07-23T07:31:42;96576.59;;;23.35;54.54
4012;BME280;2020;48.682;9.024;2022-07-23T07:34:07;96586.38;;;23.47;55.16
4012;BME280;2020;48.682;9.024;2022-07-23T07:36:32;96593.78;;;23.45;54.99
4012;BME280;2020;48.682;9.024;2022-07-23T07:38:58;96603.38;;;23.75;53.60
4012;BME280;2020;48.682;9.024;2022-07-23T07:41:23;96605.84;;;23.93;53.40
4012;BME280;2020;48.682;9.024;2022-07-23T07:43:49;96607.28;;;24.13;52.87
4012;BME280;2020;48.682;9.024;2022-07-23T07:46:15;96617.31;;;24.40;52.67
4012;BME280;2020;48.682;9.024;2022-07-23T07:48:40;96615.78;;;24.44;50.51
4012;BME280;2020;48.682;9.024;2022-07-23T07:51:06;96608.03;;;24.26;49.98
4012;BME280;2020;48.682;9.024;2022-07-23T07:53:31;96616.50;;;24.22;50.94
4012;BME280;2020;48.682;9.024;2022-07-23T07:55:58;96630.50;;;24.64;50.59
4012;BME280;2020;48.682;9.024;2022-07-23T07:58:23;96637.72;;;24.51;50.20
4012;BME280;2020;48.682;9.024;2022-07-23T08:00:48;96649.16;;;24.35;51.64
4012;BME280;2020;48.682;9.024;2022-07-23T08:03:13;96647.44;;;24.29;51.90
4012;BME280;2020;48.682;9.024;2022-07-23T08:05:39;96649.16;;;24.35;51.80
4012;BME280;2020;48.682;9.024;2022-07-23T08:08:04;96642.19;;;24.17;51.48
4012;BME280;2020;48.682;9.024;2022-07-23T08:10:30;96659.00;;;24.51;51.20
4012;BME280;2020;48.682;9.024;2022-07-23T08:12:57;96650.66;;;24.60;49.74
4012;BME280;2020;48.682;9.024;2022-07-23T08:15:26;96644.69;;;24.23;50.06
4012;BME280;2020;48.682;9.024;2022-07-23T08:17:51;96632.41;;;24.34;49.76
4012;BME280;2020;48.682;9.024;2022-07-23T08:20:18;96633.81;;;24.71;48.71
4012;BME280;2020;48.682;9.024;2022-07-23T08:22:58;96636.63;;;24.99;47.62
4012;BME280;2020;48.682;9.024;2022-07-23T08:25:28;96622.88;;;25.24;47.45
4012;BME280;2020;48.682;9.024;2022-07-23T08:27:54;96628.63;;;25.55;47.08
4012;BME280;2020;48.682;9.024;2022-07-23T08:30:20;96630.78;;;25.19;45.62
4012;BME280;2020;48.682;9.024;2022-07-23T08:35:28;96628.03;;;25.31;46.28
4012;BME280;2020;48.682;9.024;2022-07-23T08:37:55;96626.72;;;25.33;45.69
4012;BME280;2020;48.682;9.024;2022-07-23T08:40:21;96634.00;;;25.21;45.98
4012;BME280;2020;48.682;9.024;2022-07-23T08:42:48;96635.50;;;24.94;46.69
4012;BME280;2020;48.682;9.024;2022-07-23T08:45:16;96636.47;;;25.05;46.17
4012;BME280;2020;48.682;9.024;2022-07-23T08:47:41;96625.59;;;25.29;45.59
4012;BME280;2020;48.682;9.024;2022-07-23T08:50:07;96627.84;;;25.37;45.88
4012;BME280;2020;48.682;9.024;2022-07-23T08:52:33;96637.31;;;25.28;46.52
4012;BME280;2020;48.682;9.024;2022-07-23T08:54:59;96635.63;;;25.22;46.47
4012;BME280;2020;48.682;9.024;2022-07-23T08:57:24;96636.19;;;25.24;46.61
4012;BME280;2020;48.682;9.024;2022-07-23T08:59:50;96639.34;;;25.21;46.33
4012;BME280;2020;48.682;9.024;2022-07-23T09:02:15;96636.75;;;25.26;47.67
4012;BME280;2020;48.682;9.024;2022-07-23T09:04:41;96645.13;;;25.35;46.28
4012;BME280;2020;48.682;9.024;2022-07-23T09:07:06;96632.16;;;25.61;45.81
4012;BME280;2020;48.682;9.024;2022-07-23T09:09:31;96637.72;;;25.81;44.77
4012;BME280;2020;48.682;9.024;2022-07-23T09:12:05;96626.22;;;25.53;44.49
4012;BME280;2020;48.682;9.024;2022-07-23T09:17:14;96632.22;;;25.88;44.33
4012;BME280;2020;48.682;9.024;2022-07-23T09:19:41;96630.81;;;26.08;44.90
4012;BME280;2020;48.682;9.024;2022-07-23T09:22:17;96626.41;;;26.46;45.12
4012;BME280;2020;48.682;9.024;2022-07-23T09:25:03;96626.47;;;26.56;44.83
4012;BME280;2020;48.682;9.024;2022-07-23T09:30:16;96626.56;;;26.67;45.27
4012;BME280;2020;48.682;9.024;2022-07-23T09:32:42;96621.69;;;26.91;45.29
4012;BME280;2020;48.682;9.024;2022-07-23T09:35:08;96614.03;;;27.05;43.68
4012;BME280;2020;48.682;9.024;2022-07-23T09:37:34;96618.97;;;27.24;44.79
4012;BME280;2020;48.682;9.024;2022-07-23T09:40:07;96609.34;;;27.23;42.54
4012;BME280;2020;48.682;9.024;2022-07-23T09:42:33;96607.84;;;27.48;43.58
4012;BME280;2020;48.682;9.024;2022-07-23T09:44:59;96605.81;;;27.65;42.63
4012;BME280;2020;48.682;9.024;2022-07-23T09:47:28;96613.25;;;27.58;42.41
4012;BME280;2020;48.682;9.024;2022-07-23T09:50:07;96612.78;;;27.71;43.18
4012;BME280;2020;48.682;9.024;2022-07-23T09:52:46;96606.88;;;27.64;43.93
4012;BME280;2020;48.682;9.024;2022-07-23T09:55:13;96605.25;;;27.63;42.67
4012;BME280;2020;48.682;9.024;2022-07-23T09:57:42;96605.78;;;27.60;42.62
4012;BME280;2020;48.682;9.024;2022-07-23T10:00:10;96603.03;;;27.44;42.52
4012;BME280;2020;48.682;9.024;2022-07-23T10:02:37;96600.41;;;27.50;42.43
4012;BME280;2020;48.682;9.024;2022-07-23T10:05:03;96613.09;;;27.85;41.81
4012;BME280;2020;48.682;9.024;2022-07-23T10:07:32;96609.09;;;27.98;41.58
4012;BME280;2020;48.682;9.024;2022-07-23T10:09:59;96605.41;;;28.15;40.42
4012;BME280;2020;48.682;9.024;2022-07-23T10:12:25;96618.81;;;28.41;40.00
4012;BME280;2020;48.682;9.024;2022-07-23T10:14:53;96615.25;;;27.99;39.88
4012;BME280;2020;48.682;9.024;2022-07-23T10:17:19;96619.25;;;27.96;39.99
4012;BME280;2020;48.682;9.024;2022-07-23T10:19:44;96615.03;;;28.16;39.99
4012;BME280;2020;48.682;9.024;2022-07-23T10:22:13;96611.28;;;28.22;39.71
4012;BME280;2020;48.682;9.024;2022-07-23T10:27:31;96610.78;;;28.46;39.52
4012;BME280;2020;48.682;9.024;2022-07-23T10:30:06;96612.31;;;28.11;38.71
4012;BME280;2020;48.682;9.024;2022-07-23T10:32:45;96611.50;;;27.95;39.20
4012;BME280;2020;48.682;9.024;2022-07-23T10:38:13;96609.16;;;28.14;38.79
4012;BME280;2020;48.682;9.024;2022-07-23T10:40:53;96603.56;;;28.21;39.22
4012;BME280;2020;48.682;9.024;2022-07-23T10:43:20;96609.69;;;28.47;39.18
4012;BME280;2020;48.682;9.024;2022-07-23T10:45:45;96602.22;;;28.65;37.71
4012;BME280;2020;48.682;9.024;2022-07-23T10:48:19;96599.03;;;28.83;38.85
4012;BME280;2020;48.682;9.024;2022-07-23T10:51:09;96597.41;;;28.82;37.06
4012;BME280;2020;48.682;9.024;2022-07-23T10:59:15;96601.41;;;28.54;38.19
4012;BME280;2020;48.682;9.024;2022-07-23T11:01:40;96602.22;;;28.70;37.59
4012;BME280;2020;48.682;9.024;2022-07-23T11:04:06;96598.75;;;28.85;37.23
4012;BME280;2020;48.682;9.024;2022-07-23T11:09:30;96597.34;;;29.13;36.36
4012;BME280;2020;48.682;9.024;2022-07-23T11:15:13;96589.91;;;28.74;37.06
4012;BME280;2020;48.682;9.024;2022-07-23T11:18:00;96598.91;;;29.25;36.92
4012;BME280;2020;48.682;9.024;2022-07-23T11:20:25;96604.53;;;29.39;35.00
4012;BME280;2020;48.682;9.024;2022-07-23T11:22:56;96594.09;;;29.22;35.30
4012;BME280;2020;48.682;9.024;2022-07-23T11:27:48;96599.53;;;28.75;37.36
4012;BME280;2020;48.682;9.024;2022-07-23T11:30:41;96602.22;;;28.96;37.83
4012;BME280;2020;48.682;9.024;2022-07-23T11:35:32;96602.50;;;28.79;36.66
4012;BME280;2020;48.682;9.024;2022-07-23T11:38:06;96585.66;;;28.78;36.34
4012;BME280;2020;48.682;9.024;2022-07-23T11:40:34;96589.63;;;28.75;37.53
4012;BME280;2020;48.682;9.024;2022-07-23T11:43:08;96588.19;;;29.25;36.35
4012;BME280;2020;48.682;9.024;2022-07-23T11:45:46;96591.13;;;29.44;36.04
4012;BME280;2020;48.682;9.024;2022-07-23T11:48:21;96586.16;;;28.96;35.21
4012;BME280;2020;48.682;9.024;2022-07-23T11:50:46;96591.44;;;29.16;36.08
4012;BME280;2020;48.682;9.024;2022-07-23T11:53:12;96584.41;;;29.46;35.44
4012;BME280;2020;48.682;9.024;2022-07-23T11:55:38;96585.34;;;29.71;35.16
4012;BME280;2020;48.682;9.024;2022-07-23T11:58:03;96579.78;;;30.13;35.05
4012;BME280;2020;48.682;9.024;2022-07-23T12:00:30;96591.22;;;29.79;34.02
4012;BME280;2020;48.682;9.024;2022-07-23T12:02:58;96582.59;;;29.87;34.69
4012;BME280;2020;48.682;9.024;2022-07-23T12:05:30;96580.81;;;29.72;33.89
4012;BME280;2020;48.682;9.024;2022-07-23T12:07:57;96580.44;;;29.89;34.00
4012;BME280;2020;48.682;9.024;2022-07-23T12:10:35;96577.78;;;29.79;34.63
4012;BME280;2020;48.682;9.024;2022-07-23T12:13:04;96579.59;;;29.43;34.47
4012;BME280;2020;48.682;9.024;2022-07-23T12:15:32;96573.13;;;29.50;35.45
4012;BME280;2020;48.682;9.024;2022-07-23T12:18:02;96560.78;;;29.48;35.23
4012;BME280;2020;48.682;9.024;2022-07-23T12:20:31;96575.19;;;30.13;34.64
4012;BME280;2020;48.682;9.024;2022-07-23T12:22:58;96572.41;;;30.63;33.39
4012;BME280;2020;48.682;9.024;2022-07-23T12:25:26;96566.75;;;30.30;33.70
4012;BME280;2020;48.682;9.024;2022-07-23T12:30:53;96568.88;;;29.33;35.43
4012;BME280;2020;48.682;9.024;2022-07-23T12:33:27;96572.09;;;29.35;36.22
4012;BME280;2020;48.682;9.024;2022-07-23T12:35:55;96562.97;;;29.36;36.26
4012;BME280;2020;48.682;9.024;2022-07-23T12:38:22;96569.91;;;29.47;34.66
4012;BME280;2020;48.682;9.024;2022-07-23T12:40:50;96567.59;;;29.81;34.13
4012;BME280;2020;48.682;9.024;2022-07-23T12:48:34;96577.31;;;29.66;35.97
4012;BME280;2020;48.682;9.024;2022-07-23T12:51:07;96578.16;;;29.67;36.21
4012;BME280;2020;48.682;9.024;2022-07-23T12:53:37;96586.31;;;29.96;36.09
4012;BME280;2020;48.682;9.024;2022-07-23T12:56:12;96581.44;;;30.03;36.06
4012;BME280;2020;48.682;9.024;2022-07-23T12:58:51;96592.31;;;29.72;35.54
4012;BME280;2020;48.682;9.024;2022-07-23T13:03:59;96583.16;;;29.79;35.43
4012;BME280;2020;48.682;9.024;2022-07-23T13:06:25;96581.34;;;30.19;34.60
4012;BME280;2020;48.682;9.024;2022-07-23T13:08:51;96581.78;;;30.31;35.40
4012;BME280;2020;48.682;9.024;2022-07-23T13:11:16;96591.13;;;29.99;34.93
4012;BME280;2020;48.682;9.024;2022-07-23T13:13:42;96577.38;;;30.11;34.59
4012;BME280;2020;48.682;9.024;2022-07-23T13:16:07;96581.91;;;30.16;34.93
4012;BME280;2020;48.682;9.024;2022-07-23T13:18:32;96587.16;;;30.31;34.40
4012;BME280;2020;48.682;9.024;2022-07-23T13:20:58;96586.50;;;30.10;34.50
4012;BME280;2020;48.682;9.024;2022-07-23T13:23:23;96588.34;;;30.15;34.45
4012;BME280;2020;48.682;9.024;2022-07-23T13:25:49;96585.16;;;30.13;35.65
4012;BME280;2020;48.682;9.024;2022-07-23T13:28:15;96592.41;;;30.07;34.39
4012;BME280;2020;48.682;9.024;2022-07-23T13:30:42;96591.75;;;29.75;34.91
4012;BME280;2020;48.682;9.024;2022-07-23T13:33:08;96581.59;;;29.72;35.50
4012;BME280;2020;48.682;9.024;2022-07-23T13:35:34;96598.88;;;29.35;35.30
4012;BME280;2020;48.682;9.024;2022-07-23T13:38:01;96596.78;;;29.22;35.80
4012;BME280;2020;48.682;9.024;2022-07-23T13:40:26;96596.53;;;29.23;35.72
4012;BME280;2020;48.682;9.024;2022-07-23T13:42:52;96599.44;;;29.32;35.57
4012;BME280;2020;48.682;9.024;2022-07-23T13:45:17;96587.50;;;29.69;37.16
4012;BME280;2020;48.682;9.024;2022-07-23T13:47:43;96587.56;;;29.54;35.53
4012;BME280;2020;48.682;9.024;2022-07-23T13:50:08;96587.94;;;29.26;36.20
4012;BME280;2020;48.682;9.024;2022-07-23T13:52:34;96585.03;;;29.12;35.81
4012;BME280;2020;48.682;9.024;2022-07-23T13:55:04;96585.63;;;28.94;36.02
4012;BME280;2020;48.682;9.024;2022-07-23T13:57:30;96589.34;;;28.98;36.58
4012;BME280;2020;48.682;9.024;2022-07-23T13:59:56;96597.66;;;28.75;36.89
4012;BME280;2020;48.682;9.024;2022-07-23T14:02:21;96597.94;;;28.69;36.99